createdAt,value
2022-08-05T00:01:36.260Z,15.38
2022-08-05T00:04:17.471Z,15.73
2022-08-05T00:06:45.518Z,16.02
2022-08-05T00:09:16.042Z,16.35
2022-08-05T00:11:56.067Z,15.73
2022-08-05T00:14:29.301Z,15.45
2022-08-05T00:17:01.913Z,16.00
2022-08-05T00:19:32.924Z,16.83
2022-08-05T00:22:02.848Z,15.52
2022-08-05T00:24:31.575Z,14.90
2022-08-05T00:26:59.523Z,15.65
2022-08-05T00:29:27.592Z,16.02
2022-08-05T00:32:12.906Z,16.05
2022-08-05T00:35:05.511Z,16.33
2022-08-05T00:37:50.721Z,16.27
2022-08-05T00:40:27.328Z,15.48
2022-08-05T00:43:00.571Z,16.13
2022-08-05T00:45:42.742Z,16.30
2022-08-05T00:48:13.588Z,16.27
2022-08-05T00:50:44.122Z,17.17
2022-08-05T00:54:00.707Z,17.45
2022-08-05T00:56:03.119Z,17.20
2022-08-05T00:58:32.389Z,17.00
2022-08-05T01:00:59.887Z,17.75
2022-08-05T01:03:30.912Z,18.02
2022-08-05T01:06:00.564Z,17.27
2022-08-05T01:08:42.232Z,17.52
2022-08-05T01:11:37.227Z,16.85
2022-08-05T01:14:36.199Z,17.20
2022-08-05T01:17:47.129Z,18.25
2022-08-05T01:20:40.869Z,17.80
2022-08-05T01:23:34.820Z,17.63
2022-08-05T01:26:26.389Z,17.13
2022-08-05T01:29:03.547Z,16.70
2022-08-05T01:31:55.394Z,16.63
2022-08-05T01:34:28.178Z,17.35
2022-08-05T01:37:09.685Z,16.73
2022-08-05T01:39:59.152Z,17.27
2022-08-05T01:42:28.024Z,17.02
2022-08-05T01:45:02.096Z,17.90
2022-08-05T01:47:39.337Z,18.17
2022-08-05T01:50:18.941Z,18.42
2022-08-05T01:53:02.073Z,18.98
2022-08-05T01:55:36.051Z,18.48
2022-08-05T01:58:10.036Z,17.95
2022-08-05T02:00:55.678Z,18.00
2022-08-05T02:03:36.240Z,17.95
2022-08-05T02:06:24.234Z,17.77
2022-08-05T02:08:58.467Z,18.30
2022-08-05T02:11:33.957Z,17.38
2022-08-05T02:14:12.444Z,17.52
2022-08-05T02:16:52.954Z,17.70
2022-08-05T02:19:35.943Z,17.73
2022-08-05T02:22:25.554Z,18.15
2022-08-05T02:25:00.067Z,16.88
2022-08-05T02:27:59.657Z,18.08
2022-08-05T02:30:18.463Z,17.23
2022-08-05T02:32:49.590Z,17.92
2022-08-05T02:35:27.776Z,17.75
2022-08-05T02:37:59.094Z,17.98
2022-08-05T02:40:30.191Z,18.00
2022-08-05T02:42:59.293Z,17.42
2022-08-05T02:45:28.555Z,17.13
2022-08-05T02:48:17.551Z,17.15
2022-08-05T02:50:48.430Z,16.67
2022-08-05T02:53:19.609Z,16.15
2022-08-05T02:56:00.129Z,16.48
2022-08-05T02:58:30.739Z,16.98
2022-08-05T03:01:01.871Z,17.17
2022-08-05T03:03:33.675Z,16.27
2022-08-05T03:06:54.184Z,15.43
2022-08-05T03:08:53.030Z,16.23
2022-08-05T03:11:55.509Z,15.90
2022-08-05T03:14:13.990Z,14.77
2022-08-05T03:16:41.908Z,15.40
2022-08-05T03:19:17.190Z,16.02
2022-08-05T03:21:57.495Z,15.90
2022-08-05T03:24:30.089Z,14.93
2022-08-05T03:27:00.137Z,15.75
2022-08-05T03:29:45.240Z,15.80
2022-08-05T03:32:18.202Z,14.45
2022-08-05T03:34:50.723Z,15.48
2022-08-05T03:37:23.738Z,15.13
2022-08-05T03:40:01.078Z,15.48
2022-08-05T03:42:31.963Z,14.55
2022-08-05T03:44:59.457Z,15.20
2022-08-05T03:47:30.511Z,15.00
2022-08-05T03:50:03.642Z,14.65
2022-08-05T03:54:59.295Z,14.32
2022-08-05T03:56:05.556Z,15.23
2022-08-05T03:58:29.097Z,14.20
2022-08-05T04:01:00.193Z,15.02
2022-08-05T04:03:29.478Z,14.88
2022-08-05T04:05:59.161Z,15.15
2022-08-05T04:08:34.982Z,14.98
2022-08-05T04:11:08.695Z,14.82
2022-08-05T04:13:49.837Z,15.20
2022-08-05T04:16:25.476Z,15.10
2022-08-05T04:19:00.226Z,14.10
2022-08-05T04:22:08.671Z,14.48
2022-08-05T04:24:19.587Z,14.90
2022-08-05T04:26:51.185Z,13.65
2022-08-05T04:29:18.488Z,13.25
2022-08-05T04:31:48.462Z,13.60
2022-08-05T04:34:32.399Z,14.10
2022-08-05T04:37:03.098Z,15.18
2022-08-05T04:39:32.200Z,13.27
2022-08-05T04:42:01.873Z,14.13
2022-08-05T04:44:33.724Z,14.00
2022-08-05T04:47:09.561Z,13.10
2022-08-05T04:50:03.051Z,13.43
2022-08-05T04:52:33.329Z,14.60
2022-08-05T04:55:13.968Z,15.10
2022-08-05T05:00:15.972Z,14.50
2022-08-05T05:02:45.416Z,16.65
2022-08-05T05:05:16.482Z,15.52
2022-08-05T05:08:01.190Z,14.48
2022-08-05T05:10:30.762Z,14.07
2022-08-05T05:13:04.295Z,15.43
2022-08-05T05:15:57.177Z,14.73
2022-08-05T05:18:31.384Z,15.40
2022-08-05T05:21:03.611Z,14.98
2022-08-05T05:23:39.138Z,14.80
2022-08-05T05:26:28.541Z,14.82
2022-08-05T05:29:10.014Z,14.43
2022-08-05T05:31:42.385Z,14.32
2022-08-05T05:34:20.002Z,13.48
2022-08-05T05:36:51.660Z,14.55
2022-08-05T05:39:20.959Z,15.20
2022-08-05T05:41:54.061Z,13.77
2022-08-05T05:44:35.794Z,14.68
2022-08-05T05:47:04.238Z,14.13
2022-08-05T05:49:37.548Z,13.13
2022-08-05T05:52:08.761Z,13.02
2022-08-05T05:57:20.954Z,12.40
2022-08-05T05:59:48.954Z,12.73
2022-08-05T06:02:32.927Z,11.95
2022-08-05T06:05:16.402Z,10.73
2022-08-05T06:08:01.211Z,11.37
2022-08-05T06:10:34.497Z,10.23
2022-08-05T06:13:05.934Z,11.32
2022-08-05T06:16:30.495Z,10.80
2022-08-05T06:21:01.451Z,10.20
2022-08-05T06:23:43.751Z,10.35
2022-08-05T06:26:23.975Z,9.55
2022-08-05T06:28:52.510Z,10.57
2022-08-05T06:31:22.495Z,10.38
2022-08-05T06:34:07.406Z,11.40
2022-08-05T06:36:57.552Z,12.02
2022-08-05T06:39:27.155Z,12.73
2022-08-05T06:42:04.611Z,11.40
2022-08-05T06:44:32.674Z,13.43
2022-08-05T06:47:02.389Z,12.10
2022-08-05T06:50:01.113Z,11.50
2022-08-05T06:52:37.797Z,11.13
2022-08-05T06:55:07.822Z,10.50
2022-08-05T06:57:57.836Z,10.98
2022-08-05T07:00:25.662Z,11.15
2022-08-05T07:02:54.821Z,11.95
2022-08-05T07:05:31.932Z,10.68
2022-08-05T07:08:10.646Z,10.07
2022-08-05T07:10:39.394Z,7.95
2022-08-05T07:13:56.888Z,8.70
2022-08-05T07:17:58.471Z,8.05
2022-08-05T07:20:23.029Z,8.07
2022-08-05T07:22:30.185Z,8.02
2022-08-05T07:25:54.237Z,7.55
2022-08-05T07:27:58.852Z,7.35
2022-08-05T07:30:33.675Z,7.65
2022-08-05T07:33:05.342Z,8.25
2022-08-05T07:36:04.333Z,7.80
2022-08-05T07:38:33.532Z,7.90
2022-08-05T07:42:08.865Z,8.43
2022-08-05T07:44:01.665Z,8.18
2022-08-05T07:46:33.689Z,8.35
2022-08-05T07:49:06.006Z,7.95
2022-08-05T07:51:48.776Z,8.27
2022-08-05T07:54:31.619Z,8.32
2022-08-05T07:57:13.850Z,8.43
2022-08-05T07:59:52.386Z,7.07
2022-08-05T08:02:31.382Z,8.23
2022-08-05T08:05:17.441Z,7.85
2022-08-05T08:08:00.053Z,7.18
2022-08-05T08:10:28.397Z,7.30
2022-08-05T08:12:58.829Z,7.18
2022-08-05T08:15:37.452Z,7.18
2022-08-05T08:18:20.901Z,6.93
2022-08-05T08:21:02.897Z,6.53
2022-08-05T08:24:02.682Z,7.03
2022-08-05T08:26:30.008Z,6.63
2022-08-05T08:29:22.029Z,6.53
2022-08-05T08:31:51.200Z,6.85
2022-08-05T08:34:30.706Z,6.90
2022-08-05T08:37:04.806Z,6.40
2022-08-05T08:39:32.877Z,6.40
2022-08-05T08:42:15.179Z,6.72
2022-08-05T08:45:22.307Z,6.70
2022-08-05T08:48:06.276Z,5.95
2022-08-05T08:51:03.182Z,5.60
2022-08-05T08:53:28.859Z,5.95
2022-08-05T08:56:05.335Z,6.20
2022-08-05T08:58:43.997Z,6.25
2022-08-05T09:01:21.072Z,6.28
2022-08-05T09:03:54.585Z,5.75
2022-08-05T09:06:31.764Z,5.95
2022-08-05T09:09:01.363Z,6.32
2022-08-05T09:11:53.485Z,6.25
2022-08-05T09:14:56.693Z,6.28
2022-08-05T09:17:40.500Z,6.30
2022-08-05T09:20:06.273Z,6.22
2022-08-05T09:23:18.471Z,6.18
2022-08-05T09:26:00.281Z,5.85
2022-08-05T09:28:34.699Z,6.05
2022-08-05T09:31:22.832Z,6.07
2022-08-05T09:34:02.269Z,6.15
2022-08-05T09:36:56.245Z,5.90
2022-08-05T09:39:39.577Z,6.38
2022-08-05T09:42:28.299Z,6.22
2022-08-05T09:45:17.445Z,5.78
2022-08-05T09:47:56.205Z,5.90
2022-08-05T09:50:44.064Z,5.95
2022-08-05T09:53:22.869Z,6.32
2022-08-05T09:56:04.756Z,5.28
2022-08-05T09:58:38.588Z,6.28
2022-08-05T10:01:15.133Z,6.10
2022-08-05T10:04:28.651Z,6.05
2022-08-05T10:06:58.818Z,5.75
2022-08-05T10:09:28.438Z,5.95
2022-08-05T10:12:18.525Z,6.03
2022-08-05T10:15:20.273Z,6.38
2022-08-05T10:18:04.799Z,5.90
2022-08-05T10:20:35.938Z,6.10
2022-08-05T10:23:03.309Z,5.88
2022-08-05T10:25:30.610Z,6.32
2022-08-05T10:28:13.272Z,5.90
2022-08-05T10:32:47.511Z,6.75
2022-08-05T10:33:36.199Z,6.13
2022-08-05T10:36:04.609Z,6.07
2022-08-05T10:38:37.568Z,5.93
2022-08-05T10:41:23.451Z,6.40
2022-08-05T10:44:01.607Z,6.73
2022-08-05T10:46:54.420Z,6.20
2022-08-05T10:49:27.031Z,5.75
2022-08-05T10:52:02.731Z,6.25
2022-08-05T10:55:05.461Z,6.47
2022-08-05T10:57:35.089Z,6.30
2022-08-05T11:00:20.721Z,6.05
2022-08-05T11:03:25.226Z,6.13
2022-08-05T11:06:15.837Z,6.10
2022-08-05T11:09:18.640Z,5.95
2022-08-05T11:11:55.328Z,6.43
2022-08-05T11:18:00.451Z,5.70
2022-08-05T11:20:37.372Z,5.97
2022-08-05T11:24:05.093Z,5.65
2022-08-05T11:26:29.133Z,6.20
2022-08-05T11:29:13.866Z,6.20
2022-08-05T11:31:54.300Z,5.70
2022-08-05T11:34:51.079Z,5.38
2022-08-05T11:38:36.626Z,5.72
2022-08-05T11:41:12.896Z,5.90
2022-08-05T11:44:05.606Z,5.65
2022-08-05T11:47:09.656Z,5.45
2022-08-05T11:49:34.027Z,5.50
2022-08-05T11:52:11.562Z,5.43
2022-08-05T11:54:43.556Z,5.70
2022-08-05T11:57:25.516Z,5.40
2022-08-05T11:59:56.242Z,6.00
2022-08-05T12:02:32.836Z,5.55
2022-08-05T12:05:07.360Z,5.53
2022-08-05T12:08:08.483Z,5.40
2022-08-05T12:10:43.053Z,5.30
2022-08-05T12:13:27.799Z,5.60
2022-08-05T12:16:14.532Z,5.43
2022-08-05T12:18:49.554Z,5.50
2022-08-05T12:21:30.207Z,5.88
2022-08-05T12:24:04.870Z,5.97
2022-08-05T12:26:37.086Z,5.88
2022-08-05T12:31:42.371Z,5.63
2022-08-05T12:34:21.477Z,5.40
2022-08-05T12:36:53.826Z,5.88
2022-08-05T12:39:28.087Z,5.72
2022-08-05T12:42:03.638Z,5.57
2022-08-05T12:44:34.049Z,5.30
2022-08-05T12:47:02.761Z,5.50
2022-08-05T12:50:04.622Z,5.97
2022-08-05T12:52:41.780Z,5.82
2022-08-05T12:55:25.654Z,5.88
2022-08-05T12:58:49.459Z,6.25
2022-08-05T13:02:01.453Z,6.05
2022-08-05T13:03:41.725Z,5.78
2022-08-05T13:06:20.340Z,5.78
2022-08-05T13:08:51.630Z,6.13
2022-08-05T13:11:59.830Z,5.75
2022-08-05T13:14:25.030Z,5.43
2022-08-05T13:17:40.180Z,5.18
2022-08-05T13:20:11.425Z,5.53
2022-08-05T13:22:48.144Z,5.55
2022-08-05T13:25:19.046Z,5.60
2022-08-05T13:27:54.542Z,6.20
2022-08-05T13:30:35.185Z,6.40
2022-08-05T13:33:06.936Z,6.20
2022-08-05T13:35:47.330Z,5.93
2022-08-05T13:38:31.009Z,6.10
2022-08-05T13:41:03.972Z,6.28
2022-08-05T13:43:45.266Z,5.93
2022-08-05T13:46:37.896Z,5.75
2022-08-05T13:49:15.824Z,5.72
2022-08-05T13:51:46.503Z,6.53
2022-08-05T13:54:24.951Z,6.43
2022-08-05T13:56:53.711Z,6.13
2022-08-05T13:59:27.525Z,6.43
2022-08-05T14:02:00.466Z,6.05
2022-08-05T14:04:51.909Z,6.00
2022-08-05T14:07:55.637Z,6.18
2022-08-05T14:10:28.521Z,6.13
2022-08-05T14:13:00.463Z,6.35
2022-08-05T14:16:05.261Z,5.88
2022-08-05T14:18:23.294Z,6.03
2022-08-05T14:20:54.725Z,6.07
2022-08-05T14:23:26.170Z,6.28
2022-08-05T14:25:58.921Z,6.20
2022-08-05T14:28:30.605Z,6.05
2022-08-05T14:31:01.761Z,6.03
2022-08-05T14:33:59.232Z,6.03
2022-08-05T14:36:24.022Z,6.07
2022-08-05T14:38:53.921Z,5.90
2022-08-05T14:41:21.171Z,5.80
2022-08-05T14:43:54.977Z,5.70
2022-08-05T14:46:31.399Z,6.25
2022-08-05T14:49:06.315Z,6.25
2022-08-05T14:51:42.893Z,6.18
2022-08-05T14:54:29.958Z,5.47
2022-08-05T14:57:05.110Z,6.32
2022-08-05T14:59:39.931Z,6.65
2022-08-05T15:02:15.006Z,5.75
2022-08-05T15:04:47.779Z,5.95
2022-08-05T15:08:06.378Z,6.00
2022-08-05T15:10:09.856Z,5.97
2022-08-05T15:13:00.416Z,5.85
2022-08-05T15:15:54.993Z,5.75
2022-08-05T15:18:17.651Z,5.50
2022-08-05T15:20:47.219Z,5.75
2022-08-05T15:23:16.869Z,6.05
2022-08-05T15:25:52.729Z,5.60
2022-08-05T15:28:27.311Z,6.15
2022-08-05T15:30:57.828Z,5.63
2022-08-05T15:34:04.678Z,6.15
2022-08-05T15:36:17.862Z,5.43
2022-08-05T15:40:41.565Z,5.63
2022-08-05T15:41:57.506Z,5.88
2022-08-05T15:44:31.092Z,5.60
2022-08-05T15:47:04.222Z,5.93
2022-08-05T15:49:53.466Z,6.03
2022-08-05T15:52:29.439Z,5.50
2022-08-05T15:57:49.066Z,5.63
2022-08-05T16:00:26.380Z,5.53
2022-08-05T16:03:02.578Z,5.55
2022-08-05T16:05:31.603Z,5.95
2022-08-05T16:07:58.685Z,6.00
2022-08-05T16:10:29.454Z,5.88
2022-08-05T16:12:59.582Z,5.70
2022-08-05T16:15:32.747Z,5.55
2022-08-05T16:18:04.384Z,6.40
2022-08-05T16:20:37.287Z,6.18
2022-08-05T16:23:05.950Z,6.10
2022-08-05T16:25:36.912Z,6.13
2022-08-05T16:28:06.389Z,6.07
2022-08-05T16:30:37.035Z,6.18
2022-08-05T16:33:05.625Z,6.32
2022-08-05T16:35:42.326Z,6.47
2022-08-05T16:38:23.951Z,6.20
2022-08-05T16:40:59.866Z,5.93
2022-08-05T16:43:33.126Z,5.82
2022-08-05T16:46:04.034Z,6.20
2022-08-05T16:48:39.113Z,6.60
2022-08-05T16:51:10.158Z,6.57
2022-08-05T16:54:04.997Z,6.13
2022-08-05T16:56:33.635Z,6.65
2022-08-05T16:59:08.458Z,6.72
2022-08-05T17:01:53.862Z,6.70
2022-08-05T17:04:28.259Z,7.35
2022-08-05T17:07:01.228Z,6.60
2022-08-05T17:09:38.922Z,6.65
2022-08-05T17:12:22.521Z,6.90
2022-08-05T17:15:10.185Z,7.88
2022-08-05T17:17:44.087Z,8.52
2022-08-05T17:20:14.571Z,9.70
2022-08-05T17:22:44.881Z,9.63
2022-08-05T17:25:33.644Z,10.70
2022-08-05T17:28:02.358Z,8.18
2022-08-05T17:32:58.891Z,9.15
2022-08-05T17:35:32.619Z,7.95
2022-08-05T17:38:17.680Z,8.95
2022-08-05T17:40:47.569Z,8.43
2022-08-05T17:43:18.592Z,8.70
2022-08-05T17:48:38.043Z,8.60
2022-08-05T17:51:09.053Z,9.05
2022-08-05T17:53:39.257Z,8.48
2022-08-05T17:56:08.162Z,8.07
2022-08-05T17:58:37.719Z,8.57
2022-08-05T18:01:09.711Z,7.72
2022-08-05T18:03:59.621Z,8.25
2022-08-05T18:06:29.314Z,8.70
2022-08-05T18:08:58.375Z,8.52
2022-08-05T18:11:32.900Z,9.27
2022-08-05T18:14:03.491Z,8.93
2022-08-05T18:16:32.824Z,9.25
2022-08-05T18:18:59.921Z,7.93
2022-08-05T18:22:07.365Z,8.50
2022-08-05T18:24:16.184Z,8.77
2022-08-05T18:26:44.018Z,9.43
2022-08-05T18:29:10.963Z,8.85
2022-08-05T18:31:38.336Z,9.10
2022-08-05T18:34:12.190Z,9.90
2022-08-05T18:36:41.119Z,9.05
2022-08-05T18:39:09.728Z,10.00
2022-08-05T18:41:57.291Z,9.00
2022-08-05T18:44:34.907Z,8.90
2022-08-05T18:47:04.259Z,9.05
2022-08-05T18:49:58.273Z,8.65
2022-08-05T18:52:33.734Z,9.73
2022-08-05T18:55:10.702Z,8.98
2022-08-05T18:57:50.348Z,8.73
2022-08-05T19:00:27.220Z,8.68
2022-08-05T19:03:03.408Z,9.15
2022-08-05T19:06:13.612Z,8.68
2022-08-05T19:08:21.814Z,8.57
2022-08-05T19:13:19.813Z,9.68
2022-08-05T19:15:59.165Z,9.88
2022-08-05T19:18:28.833Z,10.40
2022-08-05T19:20:56.286Z,9.32
2022-08-05T19:24:07.387Z,10.25
2022-08-05T19:26:12.091Z,10.98
2022-08-05T19:28:43.849Z,10.07
2022-08-05T19:31:13.269Z,10.05
2022-08-05T19:33:48.710Z,10.73
2022-08-05T19:36:26.251Z,10.75
2022-08-05T19:39:01.006Z,9.77
2022-08-05T19:41:58.386Z,10.23
2022-08-05T19:44:18.960Z,10.50
2022-08-05T19:46:46.762Z,10.77
2022-08-05T19:49:16.818Z,10.57
2022-08-05T19:52:05.949Z,10.35
2022-08-05T19:54:37.001Z,10.55
2022-08-05T19:57:06.895Z,10.00
2022-08-05T19:59:56.386Z,9.52
2022-08-05T20:02:31.366Z,8.57
2022-08-05T20:05:00.187Z,8.43
2022-08-05T20:07:39.014Z,8.85
2022-08-05T20:10:17.272Z,9.48
2022-08-05T20:12:49.809Z,10.13
2022-08-05T20:15:47.822Z,9.68
2022-08-05T20:18:10.635Z,9.98
2022-08-05T20:20:57.895Z,9.65
2022-08-05T20:23:40.715Z,10.30
2022-08-05T20:26:25.508Z,9.90
2022-08-05T20:28:56.824Z,10.27
2022-08-05T20:31:43.227Z,10.48
2022-08-05T20:34:15.304Z,9.48
2022-08-05T20:36:44.263Z,10.23
2022-08-05T20:39:16.178Z,10.50
2022-08-05T20:41:45.178Z,11.20
2022-08-05T20:44:15.389Z,10.57
2022-08-05T20:46:47.897Z,9.93
2022-08-05T20:49:15.290Z,11.02
2022-08-05T20:51:53.405Z,10.35
2022-08-05T20:56:49.107Z,10.68
2022-08-05T20:59:26.283Z,10.57
2022-08-05T21:01:57.146Z,10.77
2022-08-05T21:04:27.036Z,11.07
2022-08-05T21:06:54.984Z,11.02
2022-08-05T21:09:23.459Z,11.02
2022-08-05T21:12:10.655Z,10.82
2022-08-05T21:14:39.696Z,10.65
2022-08-05T21:17:07.257Z,10.90
2022-08-05T21:19:46.920Z,11.07
2022-08-05T21:22:23.466Z,11.55
2022-08-05T21:24:54.920Z,11.23
2022-08-05T21:27:25.199Z,11.18
2022-08-05T21:29:54.028Z,11.38
2022-08-05T21:32:27.587Z,10.20
2022-08-05T21:35:08.321Z,10.50
2022-08-05T21:37:47.468Z,10.85
2022-08-05T21:40:23.099Z,10.43
2022-08-05T21:45:26.447Z,10.38
2022-08-05T21:48:09.511Z,10.30
2022-08-05T21:50:37.319Z,10.45
2022-08-05T21:53:17.391Z,10.57
2022-08-05T21:56:04.690Z,10.35
2022-08-05T21:58:34.618Z,11.00
2022-08-05T22:01:05.151Z,10.52
2022-08-05T22:03:51.773Z,9.77
2022-08-05T22:06:22.275Z,10.10
2022-08-05T22:08:52.223Z,10.82
2022-08-05T22:11:34.927Z,10.43
2022-08-05T22:14:18.209Z,10.93
2022-08-05T22:16:55.948Z,10.63
2022-08-05T22:20:00.768Z,11.27
2022-08-05T22:22:12.274Z,10.45
2022-08-05T22:25:00.799Z,10.32
2022-08-05T22:28:08.943Z,10.05
2022-08-05T22:30:35.319Z,10.15
2022-08-05T22:33:15.478Z,10.68
2022-08-05T22:35:48.594Z,10.48
2022-08-05T22:38:19.593Z,10.90
2022-08-05T22:40:50.136Z,10.68
2022-08-05T22:43:36.579Z,10.50
2022-08-05T22:46:12.204Z,10.35
2022-08-05T22:48:48.184Z,11.00
2022-08-05T22:51:22.928Z,10.80
2022-08-05T22:53:58.545Z,11.32
2022-08-05T22:59:04.191Z,10.98
2022-08-05T23:02:04.689Z,11.38
2022-08-05T23:04:33.801Z,11.35
2022-08-05T23:07:01.542Z,11.63
2022-08-05T23:09:57.067Z,11.20
2022-08-05T23:12:17.985Z,11.40
2022-08-05T23:14:44.976Z,11.10
2022-08-05T23:17:35.019Z,10.95
2022-08-05T23:20:17.963Z,11.18
2022-08-05T23:22:47.815Z,10.52
2022-08-05T23:25:54.709Z,10.68
2022-08-05T23:28:07.661Z,11.35
2022-08-05T23:30:40.417Z,11.30
2022-08-05T23:33:21.894Z,12.80
2022-08-05T23:35:56.086Z,11.02
2022-08-05T23:38:24.136Z,10.73
2022-08-05T23:40:52.828Z,11.80
2022-08-05T23:43:25.191Z,11.32
2022-08-05T23:49:00.699Z,11.90
2022-08-05T23:51:55.290Z,11.70
2022-08-05T23:54:25.726Z,10.75
2022-08-05T23:57:04.109Z,11.70
2022-08-05T23:59:37.561Z,11.60
